createdAt,value
2022-10-10T00:02:35.636Z,3.78
2022-10-10T00:05:18.656Z,3.30
2022-10-10T00:07:52.606Z,3.80
2022-10-10T00:10:34.210Z,3.95
2022-10-10T00:13:11.390Z,3.10
2022-10-10T00:15:51.942Z,3.25
2022-10-10T00:21:19.022Z,3.83
2022-10-10T00:24:00.952Z,3.97
2022-10-10T00:26:38.852Z,3.70
2022-10-10T00:29:12.124Z,3.50
2022-10-10T00:31:49.516Z,3.67
2022-10-10T00:34:25.256Z,3.30
2022-10-10T00:37:06.284Z,3.40
2022-10-10T00:39:45.665Z,3.67
2022-10-10T00:42:28.536Z,3.78
2022-10-10T00:45:35.495Z,3.70
2022-10-10T00:48:15.686Z,3.58
2022-10-10T00:50:52.404Z,3.90
2022-10-10T00:53:43.050Z,4.53
2022-10-10T00:56:44.425Z,4.65
2022-10-10T00:59:13.704Z,4.57
2022-10-10T01:01:58.355Z,5.00
2022-10-10T01:04:54.011Z,5.10
2022-10-10T01:07:31.822Z,4.38
2022-10-10T01:10:19.027Z,4.28
2022-10-10T01:13:07.824Z,3.80
2022-10-10T01:16:01.345Z,4.03
2022-10-10T01:19:05.833Z,3.97
2022-10-10T01:21:47.479Z,3.53
2022-10-10T01:24:58.778Z,3.92
2022-10-10T01:28:02.175Z,4.10
2022-10-10T01:30:55.106Z,4.22
2022-10-10T01:33:42.423Z,4.22
2022-10-10T01:36:31.813Z,4.10
2022-10-10T01:39:16.761Z,3.92
2022-10-10T01:41:59.930Z,3.50
2022-10-10T01:44:29.438Z,3.72
2022-10-10T01:47:08.629Z,3.88
2022-10-10T01:49:47.975Z,3.88
2022-10-10T01:52:33.342Z,3.47
2022-10-10T01:55:23.479Z,3.63
2022-10-10T01:58:27.260Z,3.83
2022-10-10T02:01:17.973Z,3.53
2022-10-10T02:04:16.826Z,3.13
2022-10-10T02:06:59.610Z,4.07
2022-10-10T02:09:47.845Z,3.67
2022-10-10T02:12:32.144Z,3.70
2022-10-10T02:15:16.747Z,3.38
2022-10-10T02:17:59.538Z,3.67
2022-10-10T02:23:20.297Z,3.40
2022-10-10T02:26:03.395Z,3.55
2022-10-10T02:28:45.010Z,3.28
2022-10-10T02:34:10.852Z,3.58
2022-10-10T02:37:01.031Z,3.17
2022-10-10T02:39:38.801Z,3.58
2022-10-10T02:42:12.618Z,3.40
2022-10-10T02:44:49.617Z,3.58
2022-10-10T02:47:19.585Z,3.85
2022-10-10T02:50:04.788Z,3.80
2022-10-10T02:52:58.968Z,3.85
2022-10-10T02:55:42.682Z,4.18
2022-10-10T02:58:26.153Z,4.05
2022-10-10T03:03:46.864Z,3.72
2022-10-10T03:06:25.410Z,4.03
2022-10-10T03:09:25.527Z,3.55
2022-10-10T03:12:09.265Z,3.83
2022-10-10T03:14:49.304Z,3.58
2022-10-10T03:17:29.294Z,3.50
2022-10-10T03:20:21.464Z,4.40
2022-10-10T03:23:01.149Z,4.70
2022-10-10T03:25:49.656Z,4.40
2022-10-10T03:28:33.330Z,4.63
2022-10-10T03:31:14.632Z,4.90
2022-10-10T03:33:58.142Z,4.97
2022-10-10T03:36:37.774Z,4.28
2022-10-10T03:39:15.464Z,4.63
2022-10-10T03:41:50.698Z,5.43
2022-10-10T03:44:44.955Z,5.25
2022-10-10T03:47:21.668Z,4.28
2022-10-10T03:50:00.878Z,4.55
2022-10-10T03:52:52.694Z,4.05
2022-10-10T03:55:26.340Z,4.90
2022-10-10T03:58:10.097Z,4.50
2022-10-10T04:00:58.202Z,4.47
2022-10-10T04:03:41.588Z,4.38
2022-10-10T04:08:46.347Z,4.15
2022-10-10T04:11:29.455Z,5.38
2022-10-10T04:14:18.914Z,4.68
2022-10-10T04:17:03.284Z,4.78
2022-10-10T04:19:35.136Z,4.68
2022-10-10T04:22:29.339Z,4.45
2022-10-10T04:25:12.640Z,5.07
2022-10-10T04:30:28.799Z,4.38
2022-10-10T04:33:07.519Z,4.68
2022-10-10T04:35:40.956Z,5.10
2022-10-10T04:38:18.574Z,5.38
2022-10-10T04:40:53.401Z,5.25
2022-10-10T04:43:38.351Z,4.53
2022-10-10T04:46:22.616Z,4.18
2022-10-10T04:49:05.454Z,6.03
2022-10-10T04:51:54.691Z,5.35
2022-10-10T04:54:29.485Z,5.28
2022-10-10T04:57:04.297Z,4.97
2022-10-10T04:59:57.731Z,5.15
2022-10-10T05:02:45.470Z,6.13
2022-10-10T05:05:29.965Z,5.55
2022-10-10T05:08:14.697Z,5.43
2022-10-10T05:10:52.136Z,5.50
2022-10-10T05:13:34.014Z,5.93
2022-10-10T05:16:20.938Z,6.03
2022-10-10T05:18:56.509Z,6.03
2022-10-10T05:21:35.208Z,5.97
2022-10-10T05:24:15.699Z,6.35
2022-10-10T05:26:58.376Z,6.85
2022-10-10T05:29:33.570Z,6.97
2022-10-10T05:32:10.613Z,7.53
2022-10-10T05:34:58.285Z,7.03
2022-10-10T05:37:45.018Z,7.75
2022-10-10T05:40:22.347Z,7.68
2022-10-10T05:42:54.726Z,7.43
2022-10-10T05:45:26.584Z,7.95
2022-10-10T05:48:01.073Z,7.47
2022-10-10T05:50:41.880Z,7.28
2022-10-10T05:53:11.895Z,7.10
2022-10-10T05:55:42.024Z,7.35
2022-10-10T05:58:18.788Z,7.35
2022-10-10T06:00:49.724Z,7.55
2022-10-10T06:03:22.915Z,6.45
2022-10-10T06:08:26.409Z,5.53
2022-10-10T06:10:57.116Z,6.40
2022-10-10T06:13:32.847Z,5.68
2022-10-10T06:16:01.539Z,6.18
2022-10-10T06:18:31.812Z,6.13
2022-10-10T06:21:06.473Z,6.85
2022-10-10T06:23:40.756Z,6.75
2022-10-10T06:26:11.159Z,6.13
2022-10-10T06:28:39.793Z,6.13
2022-10-10T06:31:13.642Z,5.88
2022-10-10T06:33:46.434Z,5.57
2022-10-10T06:36:17.449Z,6.28
2022-10-10T06:38:55.955Z,6.72
2022-10-10T06:41:25.185Z,6.70
2022-10-10T06:43:57.159Z,6.63
2022-10-10T06:46:27.049Z,6.43
2022-10-10T06:48:57.710Z,6.18
2022-10-10T06:51:37.273Z,5.82
2022-10-10T06:54:14.926Z,6.30
2022-10-10T06:56:49.366Z,5.40
2022-10-10T06:59:19.042Z,5.93
2022-10-10T07:01:58.220Z,5.32
2022-10-10T07:04:31.748Z,5.85
2022-10-10T07:07:03.722Z,5.47
2022-10-10T07:09:32.523Z,5.85
2022-10-10T07:12:03.797Z,5.85
2022-10-10T07:14:59.370Z,5.07
2022-10-10T07:17:27.988Z,5.55
2022-10-10T07:20:01.035Z,5.57
2022-10-10T07:25:12.639Z,6.32
2022-10-10T07:27:42.911Z,5.63
2022-10-10T07:30:15.223Z,5.22
2022-10-10T07:32:45.239Z,6.70
2022-10-10T07:35:14.540Z,5.50
2022-10-10T07:37:45.322Z,6.28
2022-10-10T07:40:15.347Z,6.03
2022-10-10T07:42:44.296Z,6.18
2022-10-10T07:45:16.875Z,6.68
2022-10-10T07:47:48.233Z,6.97
2022-10-10T07:50:18.524Z,6.45
2022-10-10T07:52:50.105Z,6.03
2022-10-10T07:55:44.863Z,6.28
2022-10-10T07:58:21.538Z,5.85
2022-10-10T08:00:50.856Z,6.47
2022-10-10T08:03:21.503Z,5.55
2022-10-10T08:05:53.800Z,5.80
2022-10-10T08:08:27.363Z,5.73
2022-10-10T08:11:01.594Z,6.35
2022-10-10T08:13:35.312Z,5.80
2022-10-10T08:16:06.651Z,5.60
2022-10-10T08:18:35.301Z,6.22
2022-10-10T08:21:12.186Z,6.25
2022-10-10T08:23:43.629Z,5.78
2022-10-10T08:26:15.935Z,6.38
2022-10-10T08:28:48.841Z,6.70
2022-10-10T08:34:03.685Z,6.70
2022-10-10T08:36:36.675Z,7.28
2022-10-10T08:39:11.565Z,6.63
2022-10-10T08:41:49.702Z,7.03
2022-10-10T08:44:31.686Z,7.00
2022-10-10T08:47:05.491Z,6.10
2022-10-10T08:49:53.622Z,6.13
2022-10-10T08:52:40.825Z,6.40
2022-10-10T08:55:22.973Z,5.70
2022-10-10T08:57:55.369Z,5.97
2022-10-10T09:00:33.187Z,5.85
2022-10-10T09:03:04.776Z,6.05
2022-10-10T09:05:51.618Z,6.25
2022-10-10T09:08:58.266Z,6.40
2022-10-10T09:11:52.402Z,6.13
2022-10-10T09:14:40.816Z,5.57
2022-10-10T09:17:24.599Z,5.38
2022-10-10T09:22:37.501Z,5.60
2022-10-10T09:25:18.676Z,5.80
2022-10-10T09:28:01.995Z,6.05
2022-10-10T09:30:38.604Z,4.93
2022-10-10T09:33:27.101Z,5.55
2022-10-10T09:36:08.678Z,4.93
2022-10-10T09:38:42.947Z,5.18
2022-10-10T09:41:19.528Z,4.90
2022-10-10T09:43:57.385Z,5.28
2022-10-10T09:46:27.666Z,5.25
2022-10-10T09:48:56.691Z,5.05
2022-10-10T09:51:31.054Z,5.10
2022-10-10T09:54:19.461Z,4.70
2022-10-10T09:56:55.472Z,4.55
2022-10-10T09:59:56.350Z,4.50
2022-10-10T10:02:28.408Z,4.75
2022-10-10T10:04:57.835Z,4.68
2022-10-10T10:07:29.394Z,4.95
2022-10-10T10:10:16.272Z,4.75
2022-10-10T10:12:45.827Z,4.45
2022-10-10T10:15:22.032Z,4.88
2022-10-10T10:18:11.706Z,4.43
2022-10-10T10:20:45.342Z,4.88
2022-10-10T10:23:34.322Z,4.40
2022-10-10T10:26:16.462Z,4.53
2022-10-10T10:28:48.825Z,4.35
2022-10-10T10:31:44.813Z,4.32
2022-10-10T10:34:57.882Z,4.38
2022-10-10T10:37:43.619Z,3.97
2022-10-10T10:40:36.244Z,4.05
2022-10-10T10:43:35.655Z,3.83
2022-10-10T10:46:14.290Z,4.15
2022-10-10T10:48:54.406Z,3.83
2022-10-10T10:51:55.120Z,4.13
2022-10-10T10:54:48.228Z,4.00
2022-10-10T10:57:45.800Z,4.53
2022-10-10T11:01:20.976Z,4.25
2022-10-10T11:05:21.054Z,4.10
2022-10-10T11:06:32.083Z,4.22
2022-10-10T11:12:42.980Z,3.78
2022-10-10T11:15:17.767Z,4.43
2022-10-10T11:17:52.834Z,4.10
2022-10-10T11:20:27.859Z,3.92
2022-10-10T11:23:08.682Z,3.65
2022-10-10T11:25:52.506Z,3.67
2022-10-10T11:28:27.870Z,3.38
2022-10-10T11:31:10.166Z,3.50
2022-10-10T11:33:48.598Z,3.80
2022-10-10T11:36:21.042Z,3.45
2022-10-10T11:38:57.443Z,3.08
2022-10-10T11:41:33.943Z,3.08
2022-10-10T11:44:09.718Z,3.13
2022-10-10T11:46:43.320Z,2.92
2022-10-10T11:49:26.594Z,2.95
2022-10-10T11:52:33.545Z,3.05
2022-10-10T11:55:14.451Z,3.65
2022-10-10T11:57:49.984Z,2.58
2022-10-10T12:00:22.378Z,2.75
2022-10-10T12:02:53.196Z,2.97
2022-10-10T12:05:39.568Z,2.80
2022-10-10T12:08:27.293Z,2.90
2022-10-10T12:11:03.504Z,2.63
2022-10-10T12:13:38.148Z,2.58
2022-10-10T12:16:24.046Z,2.95
2022-10-10T12:19:01.283Z,2.42
2022-10-10T12:21:50.128Z,2.70
2022-10-10T12:24:23.285Z,2.60
2022-10-10T12:27:27.212Z,2.70
2022-10-10T12:30:30.709Z,2.53
2022-10-10T12:33:08.051Z,2.67
2022-10-10T12:35:47.434Z,2.60
2022-10-10T12:38:21.725Z,3.10
2022-10-10T12:41:13.120Z,2.97
2022-10-10T12:44:11.200Z,3.17
2022-10-10T12:46:44.003Z,2.90
2022-10-10T12:49:24.144Z,2.20
2022-10-10T12:52:09.636Z,2.58
2022-10-10T12:54:42.397Z,2.13
2022-10-10T12:59:50.407Z,2.83
2022-10-10T13:02:23.539Z,2.42
2022-10-10T13:04:54.293Z,2.50
2022-10-10T13:07:25.601Z,2.08
2022-10-10T13:09:56.155Z,2.92
2022-10-10T13:12:31.862Z,2.75
2022-10-10T13:15:04.206Z,2.70
2022-10-10T13:17:42.661Z,2.33
2022-10-10T13:20:34.057Z,2.47
2022-10-10T13:23:06.709Z,2.47
2022-10-10T13:25:39.060Z,2.63
2022-10-10T13:28:18.407Z,2.30
2022-10-10T13:30:48.073Z,2.22
2022-10-10T13:33:20.266Z,2.10
2022-10-10T13:35:50.905Z,3.35
2022-10-10T13:38:24.118Z,2.15
2022-10-10T13:41:07.788Z,2.10
2022-10-10T13:43:45.429Z,1.83
2022-10-10T13:46:24.119Z,2.50
2022-10-10T13:48:59.094Z,2.03
2022-10-10T13:51:44.702Z,3.08
2022-10-10T13:54:44.633Z,2.63
2022-10-10T13:57:17.688Z,2.95
2022-10-10T13:59:49.642Z,2.15
2022-10-10T14:02:25.519Z,2.40
2022-10-10T14:04:56.471Z,2.85
2022-10-10T14:07:26.744Z,2.05
2022-10-10T14:09:57.784Z,2.20
2022-10-10T14:12:30.154Z,2.22
2022-10-10T14:14:59.862Z,2.25
2022-10-10T14:17:31.081Z,2.03
2022-10-10T14:20:14.629Z,1.85
2022-10-10T14:22:44.068Z,2.20
2022-10-10T14:25:17.096Z,2.17
2022-10-10T14:27:50.850Z,2.42
2022-10-10T14:30:22.270Z,2.45
2022-10-10T14:32:57.724Z,1.90
2022-10-10T14:35:36.440Z,2.38
2022-10-10T14:38:07.422Z,2.20
2022-10-10T14:40:57.588Z,2.40
2022-10-10T14:43:32.568Z,2.15
2022-10-10T14:46:19.650Z,2.20
2022-10-10T14:48:48.035Z,3.50
2022-10-10T14:51:34.503Z,3.47
2022-10-10T14:54:11.864Z,3.17
2022-10-10T14:57:07.062Z,4.78
2022-10-10T14:59:45.936Z,3.15
2022-10-10T15:02:17.156Z,2.60
2022-10-10T15:04:45.072Z,3.28
2022-10-10T15:07:15.542Z,2.88
2022-10-10T15:10:02.598Z,2.90
2022-10-10T15:12:32.417Z,2.72
2022-10-10T15:15:00.542Z,2.35
2022-10-10T15:17:30.459Z,2.33
2022-10-10T15:19:58.346Z,2.95
2022-10-10T15:22:28.856Z,3.08
2022-10-10T15:24:56.797Z,2.97
2022-10-10T15:27:25.017Z,2.30
2022-10-10T15:29:52.967Z,3.13
2022-10-10T15:32:21.323Z,2.80
2022-10-10T15:34:49.924Z,2.88
2022-10-10T15:37:18.254Z,2.42
2022-10-10T15:39:47.980Z,2.47
2022-10-10T15:42:22.410Z,3.00
2022-10-10T15:44:52.079Z,3.78
2022-10-10T15:47:20.558Z,2.80
2022-10-10T15:49:49.162Z,3.15
2022-10-10T15:52:17.513Z,2.70
2022-10-10T15:54:48.891Z,3.78
2022-10-10T15:57:18.842Z,3.15
2022-10-10T15:59:47.259Z,3.20
2022-10-10T16:02:15.452Z,3.35
2022-10-10T16:04:44.244Z,3.95
2022-10-10T16:07:25.899Z,3.30
2022-10-10T16:10:01.071Z,2.88
2022-10-10T16:12:29.287Z,3.00
2022-10-10T16:14:57.148Z,2.80
2022-10-10T16:17:25.401Z,3.13
2022-10-10T16:19:53.289Z,3.00
2022-10-10T16:22:21.402Z,4.20
2022-10-10T16:25:10.301Z,3.15
2022-10-10T16:27:39.538Z,3.75
2022-10-10T16:30:17.533Z,3.13
2022-10-10T16:32:45.428Z,3.22
2022-10-10T16:35:13.347Z,4.50
2022-10-10T16:37:41.320Z,3.60
2022-10-10T16:40:10.279Z,3.67
2022-10-10T16:42:39.612Z,3.70
2022-10-10T16:45:09.679Z,5.65
2022-10-10T16:47:37.996Z,7.13
2022-10-10T16:50:07.719Z,5.68
2022-10-10T16:52:40.466Z,4.55
2022-10-10T16:55:09.460Z,4.50
2022-10-10T16:57:39.537Z,4.65
2022-10-10T17:00:11.306Z,4.80
2022-10-10T17:02:42.260Z,5.50
2022-10-10T17:05:12.096Z,7.97
2022-10-10T17:07:40.134Z,8.45
2022-10-10T17:10:08.828Z,8.25
2022-10-10T17:12:36.796Z,10.10
2022-10-10T17:15:07.368Z,8.32
2022-10-10T17:17:36.260Z,9.68
2022-10-10T17:20:05.174Z,8.32
2022-10-10T17:22:33.249Z,8.15
2022-10-10T17:25:01.396Z,9.50
2022-10-10T17:27:29.599Z,8.68
2022-10-10T17:29:57.457Z,6.75
2022-10-10T17:32:27.132Z,6.47
2022-10-10T17:34:55.929Z,5.10
2022-10-10T17:37:25.153Z,6.68
2022-10-10T17:39:55.511Z,9.07
2022-10-10T17:42:23.692Z,6.75
2022-10-10T17:44:56.190Z,5.80
2022-10-10T17:47:26.951Z,8.18
2022-10-10T17:49:57.165Z,6.25
2022-10-10T17:52:26.070Z,4.45
2022-10-10T17:54:55.022Z,4.72
2022-10-10T17:57:24.804Z,4.85
2022-10-10T17:59:53.492Z,4.30
2022-10-10T18:02:21.892Z,4.07
2022-10-10T18:04:52.334Z,4.90
2022-10-10T18:07:20.513Z,5.15
2022-10-10T18:09:52.732Z,5.78
2022-10-10T18:12:22.871Z,4.50
2022-10-10T18:14:51.191Z,5.40
2022-10-10T18:17:21.642Z,4.78
2022-10-10T18:19:52.660Z,4.50
2022-10-10T18:22:21.215Z,5.25
2022-10-10T18:24:49.166Z,4.53
2022-10-10T18:27:17.393Z,4.40
2022-10-10T18:29:45.327Z,4.47
2022-10-10T18:32:13.629Z,4.88
2022-10-10T18:34:42.347Z,4.03
2022-10-10T18:37:12.199Z,4.45
2022-10-10T18:39:41.887Z,4.40
2022-10-10T18:42:10.759Z,4.45
2022-10-10T18:44:38.663Z,4.72
2022-10-10T18:47:07.589Z,6.03
2022-10-10T18:49:35.764Z,6.10
2022-10-10T18:52:04.122Z,5.75
2022-10-10T18:54:35.599Z,5.35
2022-10-10T18:57:03.851Z,8.70
2022-10-10T18:59:32.741Z,8.27
2022-10-10T19:02:01.259Z,7.32
2022-10-10T19:04:29.511Z,8.05
2022-10-10T19:07:02.175Z,7.72
2022-10-10T19:09:30.812Z,8.00
2022-10-10T19:12:00.815Z,7.90
2022-10-10T19:14:29.037Z,7.65
2022-10-10T19:16:57.290Z,7.90
2022-10-10T19:19:25.423Z,15.27
2022-10-10T19:21:53.664Z,14.27
2022-10-10T19:24:22.381Z,11.88
2022-10-10T19:26:53.565Z,16.70
2022-10-10T19:29:23.727Z,7.60
2022-10-10T19:31:52.543Z,8.60
2022-10-10T19:34:21.995Z,9.38
2022-10-10T19:36:50.551Z,6.50
2022-10-10T19:39:18.603Z,5.07
2022-10-10T19:41:46.613Z,5.10
2022-10-10T19:44:14.490Z,5.32
2022-10-10T19:46:44.264Z,5.45
2022-10-10T19:49:12.634Z,4.60
2022-10-10T19:51:42.459Z,4.40
2022-10-10T19:54:10.884Z,3.80
2022-10-10T19:56:39.144Z,4.00
2022-10-10T19:59:07.739Z,4.28
2022-10-10T20:01:35.747Z,4.32
2022-10-10T20:04:05.418Z,3.83
2022-10-10T20:06:34.552Z,4.32
2022-10-10T20:09:10.426Z,3.90
2022-10-10T20:11:47.849Z,3.40
2022-10-10T20:14:20.311Z,3.35
2022-10-10T20:16:51.412Z,3.15
2022-10-10T20:19:21.326Z,3.30
2022-10-10T20:21:51.377Z,3.85
2022-10-10T20:24:22.714Z,3.63
2022-10-10T20:26:51.196Z,3.63
2022-10-10T20:29:20.811Z,3.22
2022-10-10T20:31:49.751Z,3.40
2022-10-10T20:34:21.821Z,3.40
2022-10-10T20:36:53.458Z,3.65
2022-10-10T20:39:21.730Z,3.45
2022-10-10T20:41:51.856Z,3.30
2022-10-10T20:44:20.144Z,3.30
2022-10-10T20:46:52.241Z,3.78
2022-10-10T20:49:24.708Z,3.97
2022-10-10T20:51:54.451Z,3.60
2022-10-10T20:54:24.669Z,4.22
2022-10-10T20:56:53.380Z,4.15
2022-10-10T20:59:24.423Z,4.35
2022-10-10T21:01:53.783Z,4.88
2022-10-10T21:04:32.794Z,4.18
2022-10-10T21:07:04.179Z,4.35
2022-10-10T21:09:32.743Z,4.20
2022-10-10T21:12:02.450Z,4.40
2022-10-10T21:14:32.385Z,4.65
2022-10-10T21:17:10.864Z,4.65
2022-10-10T21:19:41.305Z,4.85
2022-10-10T21:22:09.809Z,4.95
2022-10-10T21:24:38.370Z,5.07
2022-10-10T21:27:06.774Z,4.72
2022-10-10T21:29:35.131Z,5.03
2022-10-10T21:32:04.005Z,5.97
2022-10-10T21:34:32.400Z,5.20
2022-10-10T21:37:03.413Z,7.32
2022-10-10T21:39:31.861Z,6.13
2022-10-10T21:42:00.216Z,5.65
2022-10-10T21:44:28.532Z,5.70
2022-10-10T21:46:59.812Z,6.35
2022-10-10T21:49:28.420Z,5.30
2022-10-10T21:51:56.801Z,6.00
2022-10-10T21:54:34.134Z,5.18
2022-10-10T21:57:02.691Z,5.65
2022-10-10T21:59:33.124Z,5.65
2022-10-10T22:02:01.574Z,4.75
2022-10-10T22:04:29.652Z,5.25
2022-10-10T22:06:58.040Z,5.30
2022-10-10T22:09:29.090Z,5.72
2022-10-10T22:11:58.488Z,4.97
2022-10-10T22:14:26.757Z,5.13
2022-10-10T22:16:56.307Z,5.80
2022-10-10T22:19:24.988Z,5.75
2022-10-10T22:21:54.325Z,5.43
2022-10-10T22:24:22.564Z,5.75
2022-10-10T22:26:52.107Z,5.53
2022-10-10T22:29:20.247Z,6.28
2022-10-10T22:31:48.830Z,5.57
2022-10-10T22:34:17.017Z,5.85
2022-10-10T22:36:45.532Z,5.90
2022-10-10T22:39:15.442Z,5.50
2022-10-10T22:41:44.134Z,5.60
2022-10-10T22:44:14.815Z,5.18
2022-10-10T22:46:43.335Z,5.70
2022-10-10T22:49:11.425Z,5.05
2022-10-10T22:51:39.700Z,4.47
2022-10-10T22:54:08.257Z,5.28
2022-10-10T22:56:36.616Z,5.38
2022-10-10T22:59:04.955Z,4.70
2022-10-10T23:01:36.935Z,5.07
2022-10-10T23:04:10.498Z,4.75
2022-10-10T23:06:39.222Z,4.95
2022-10-10T23:09:08.354Z,5.20
2022-10-10T23:11:38.468Z,5.32
2022-10-10T23:14:07.359Z,5.15
2022-10-10T23:16:40.690Z,5.07
2022-10-10T23:19:09.573Z,5.50
2022-10-10T23:21:38.154Z,5.70
2022-10-10T23:24:07.424Z,5.18
2022-10-10T23:26:36.006Z,5.28
2022-10-10T23:29:04.657Z,5.03
2022-10-10T23:31:33.682Z,5.20
2022-10-10T23:34:03.880Z,5.38
2022-10-10T23:36:32.399Z,5.53
2022-10-10T23:39:00.983Z,4.88
2022-10-10T23:41:30.022Z,5.82
2022-10-10T23:44:00.443Z,5.32
2022-10-10T23:46:28.996Z,4.68
2022-10-10T23:48:59.148Z,4.90
2022-10-10T23:51:29.803Z,4.88
2022-10-10T23:54:05.883Z,4.43
2022-10-10T23:56:35.211Z,4.55
2022-10-10T23:59:03.342Z,5.30
